Time;durP1;ratioP1;P1;durP2;ratioP2;P2;SDS_P1;SDS_P2;PMS_P1;PMS_P2;Temp;Humidity;BMP_temperature;BMP_pressure;BME280_temperature;BME280_humidity;BME280_pressure;Samples;Min_cycle;Max_cycle;Signal;HPM_P1;HPM_P2
2022/08/23 00:00:44;;;;;;;4.00;3.60;;;16.60;99.90;;;;;;4934121;29;20177;-71
2022/08/23 00:03:09;;;;;;;3.53;2.80;;;16.60;99.90;;;;;;4950704;28;20180;-73
2022/08/23 00:05:35;;;;;;;8.50;3.20;;;16.60;99.90;;;;;;4950642;28;20562;-72
2022/08/23 00:08:00;;;;;;;4.03;3.33;;;16.50;99.90;;;;;;4950432;28;20177;-72
2022/08/23 00:10:26;;;;;;;4.77;3.70;;;16.50;99.90;;;;;;4934290;29;20189;-72
2022/08/23 00:12:51;;;;;;;5.53;3.73;;;16.50;99.90;;;;;;4933930;29;20291;-70
2022/08/23 00:15:19;;;;;;;3.43;3.23;;;16.50;99.90;;;;;;4934595;29;20272;-72
2022/08/23 00:17:46;;;;;;;4.00;3.70;;;16.40;99.90;;;;;;4950634;28;20212;-72
2022/08/23 00:20:14;;;;;;;4.47;4.07;;;16.40;99.90;;;;;;4950338;28;20412;-71
2022/08/23 00:22:41;;;;;;;4.30;3.90;;;16.40;99.90;;;;;;4949995;29;20519;-71
2022/08/23 00:25:09;;;;;;;6.53;3.80;;;16.40;99.90;;;;;;4952651;28;20854;-72
2022/08/23 00:27:35;;;;;;;4.37;3.83;;;16.40;99.90;;;;;;4953497;28;20978;-72
2022/08/23 00:30:01;;;;;;;8.23;3.50;;;16.40;99.90;;;;;;4953517;28;20476;-72
2022/08/23 00:32:30;;;;;;;7.20;3.00;;;16.30;99.90;;;;;;4954573;28;20302;-72
2022/08/23 00:34:58;;;;;;;6.17;3.40;;;16.30;99.90;;;;;;4953631;28;20428;-72
2022/08/23 00:37:25;;;;;;;3.87;3.57;;;16.30;99.90;;;;;;4954893;28;20985;-72
2022/08/23 00:39:50;;;;;;;6.70;3.77;;;16.30;99.90;;;;;;4953292;28;20507;-71
2022/08/23 00:48:31;;;;;;;5.47;3.40;;;16.30;99.90;;;;;;4954668;29;20499;-71
2022/08/23 00:51:17;;;;;;;4.20;3.87;;;16.30;99.90;;;;;;4936550;29;20417;-72
2022/08/23 00:53:48;;;;;;;7.00;3.30;;;16.30;99.90;;;;;;4953303;29;20457;-72
2022/08/23 00:56:17;;;;;;;4.47;3.17;;;16.30;99.90;;;;;;4937345;29;20425;-72
2022/08/23 00:58:44;;;;;;;6.13;3.57;;;16.20;99.90;;;;;;4953071;28;20460;-73
2022/08/23 02:31:48;;;;;;;5.00;4.50;;;15.30;99.90;;;;;;5513795;23;20562;-73
2022/08/23 02:34:15;;;;;;;4.47;4.17;;;15.20;99.90;;;;;;4992618;28;20465;-72
2022/08/23 02:36:42;;;;;;;5.27;4.77;;;15.20;99.90;;;;;;4992852;28;20778;-72
2022/08/23 02:39:09;;;;;;;4.80;4.30;;;15.10;99.90;;;;;;4992784;28;20427;-72
2022/08/23 02:41:36;;;;;;;5.20;4.70;;;15.10;99.90;;;;;;4992363;28;20438;-72
2022/08/23 02:44:03;;;;;;;5.47;4.93;;;15.10;99.90;;;;;;4992640;28;20518;-71
2022/08/23 02:46:28;;;;;;;9.70;4.40;;;15.00;99.90;;;;;;4969879;28;20459;-69
2022/08/23 02:48:55;;;;;;;4.40;4.10;;;15.00;99.90;;;;;;4953062;29;20416;-72
2022/08/23 02:51:20;;;;;;;4.83;4.33;;;15.00;99.90;;;;;;4952594;28;20279;-72
2022/08/23 02:53:46;;;;;;;7.70;4.53;;;15.00;99.90;;;;;;4953113;29;20511;-72
2022/08/23 02:56:14;;;;;;;4.73;4.33;;;14.90;99.90;;;;;;4953158;29;20192;-70
2022/08/23 02:58:40;;;;;;;5.80;4.27;;;14.90;99.90;;;;;;4953446;28;20204;-72
2022/08/23 03:01:13;;;;;;;7.43;4.17;;;14.90;99.90;;;;;;4952669;29;20443;-72
2022/08/23 03:03:38;;;;;;;6.13;4.67;;;14.90;99.90;;;;;;4953540;29;20412;-73
2022/08/23 03:06:04;;;;;;;6.60;4.33;;;14.80;99.90;;;;;;4952845;28;20490;-73
2022/08/23 03:08:29;;;;;;;6.37;4.90;;;14.80;99.90;;;;;;4953723;29;20215;-72
2022/08/23 03:10:55;;;;;;;5.13;4.60;;;14.70;99.90;;;;;;4953310;28;20252;-73
2022/08/23 03:13:20;;;;;;;4.90;4.40;;;14.70;99.90;;;;;;4953661;28;20654;-72
2022/08/23 03:15:46;;;;;;;4.30;3.90;;;14.60;99.90;;;;;;4953328;29;20180;-73
2022/08/23 03:18:11;;;;;;;4.00;3.70;;;14.60;99.90;;;;;;4952891;28;20201;-73
2022/08/23 03:20:40;;;;;;;9.03;4.13;;;14.60;99.90;;;;;;4952252;28;20176;-73
2022/08/23 03:23:07;;;;;;;4.27;3.87;;;14.50;99.90;;;;;;4952898;28;20172;-73
2022/08/23 03:25:32;;;;;;;4.43;4.03;;;14.50;99.90;;;;;;4952629;29;20985;-72
2022/08/23 03:28:03;;;;;;;6.97;4.30;;;14.50;99.90;;;;;;4953107;28;20503;-73
2022/08/23 03:30:29;;;;;;;4.57;4.27;;;14.40;99.90;;;;;;4952593;29;20180;-73
2022/08/23 03:32:54;;;;;;;4.33;4.03;;;14.40;99.90;;;;;;4952174;28;20458;-73
2022/08/23 03:35:20;;;;;;;5.17;4.60;;;14.40;99.90;;;;;;4952682;28;20185;-72
2022/08/23 03:37:46;;;;;;;5.47;5.00;;;14.40;99.90;;;;;;4952983;29;20837;-72
2022/08/23 03:40:11;;;;;;;5.37;4.57;;;14.30;99.90;;;;;;4952117;28;20239;-71
2022/08/23 03:42:37;;;;;;;5.17;4.40;;;14.30;99.90;;;;;;4952054;29;20200;-73
2022/08/23 03:45:03;;;;;;;4.80;4.40;;;14.30;99.90;;;;;;4952900;28;20665;-72
2022/08/23 03:47:29;;;;;;;7.00;4.50;;;14.20;99.90;;;;;;4953073;29;20203;-74
2022/08/23 03:49:54;;;;;;;7.40;4.60;;;14.20;99.90;;;;;;4948598;29;20637;-73
2022/08/23 03:52:20;;;;;;;5.50;4.60;;;14.10;99.90;;;;;;4952437;29;20297;-72
2022/08/23 03:54:45;;;;;;;9.40;4.63;;;14.10;99.90;;;;;;4952644;28;20185;-73
2022/08/23 03:57:11;;;;;;;6.17;4.93;;;14.10;99.90;;;;;;4952867;28;20197;-73
2022/08/23 03:59:39;;;;;;;5.30;4.80;;;14.10;99.90;;;;;;4953764;28;20288;-72
2022/08/23 04:02:05;;;;;;;10.07;5.00;;;14.10;99.90;;;;;;4956020;29;20216;-72
2022/08/23 04:04:31;;;;;;;9.80;4.87;;;14.00;99.90;;;;;;4956582;29;20466;-72
2022/08/23 04:06:57;;;;;;;7.30;4.60;;;14.00;99.90;;;;;;4956477;29;20960;-73
2022/08/23 04:09:23;;;;;;;5.17;4.40;;;14.00;99.90;;;;;;4955930;29;20416;-73
2022/08/23 04:11:49;;;;;;;5.20;4.70;;;14.00;99.90;;;;;;4956936;28;20212;-72
2022/08/23 04:14:14;;;;;;;6.20;3.93;;;14.00;99.90;;;;;;4957492;29;20177;-73
2022/08/23 04:16:40;;;;;;;5.77;4.50;;;14.00;99.90;;;;;;4955068;29;20793;-72
2022/08/23 04:19:08;;;;;;;4.73;4.33;;;14.00;99.90;;;;;;4956088;29;20567;-72
2022/08/23 04:21:36;;;;;;;5.53;4.97;;;14.00;99.90;;;;;;4956049;28;20436;-72
2022/08/23 04:24:03;;;;;;;5.20;4.70;;;13.90;99.90;;;;;;4956460;28;20421;-72
2022/08/23 04:26:29;;;;;;;8.67;4.90;;;13.90;99.90;;;;;;4955208;29;20416;-72
2022/08/23 04:28:55;;;;;;;6.83;4.50;;;13.90;99.90;;;;;;4956316;29;20968;-72
2022/08/23 04:31:21;;;;;;;7.00;5.20;;;13.90;99.90;;;;;;4955408;29;20216;-73
2022/08/23 04:33:46;;;;;;;5.87;5.10;;;13.90;99.90;;;;;;4956160;28;20428;-72
2022/08/23 04:36:12;;;;;;;5.80;5.30;;;13.90;99.90;;;;;;4956131;28;20653;-72
2022/08/23 04:38:38;;;;;;;5.27;4.87;;;13.80;99.90;;;;;;4955923;28;20208;-72
2022/08/23 04:43:49;;;;;;;5.47;4.97;;;13.80;99.90;;;;;;4956163;29;21001;-72
2022/08/23 04:46:15;;;;;;;5.93;5.10;;;13.90;99.90;;;;;;4955628;29;20815;-73
2022/08/23 04:48:42;;;;;;;4.87;4.50;;;13.90;99.90;;;;;;4955786;29;20516;-72
2022/08/23 04:51:07;;;;;;;5.50;5.10;;;14.00;99.90;;;;;;4955441;29;20202;-73
2022/08/23 04:53:34;;;;;;;5.10;4.70;;;13.90;99.90;;;;;;4955445;28;20424;-72
2022/08/23 04:56:00;;;;;;;7.20;5.47;;;14.00;99.90;;;;;;4956035;28;20252;-71
2022/08/23 04:58:27;;;;;;;6.40;5.10;;;14.00;99.90;;;;;;4954218;29;20466;-73
2022/08/23 05:00:53;;;;;;;5.53;5.07;;;14.00;99.90;;;;;;4954105;28;20432;-73
2022/08/23 05:03:19;;;;;;;6.20;5.30;;;14.10;99.90;;;;;;4954406;29;20779;-73
2022/08/23 05:05:44;;;;;;;5.17;4.50;;;14.10;99.90;;;;;;4954489;28;20427;-72
2022/08/23 05:08:10;;;;;;;5.03;4.40;;;14.10;99.90;;;;;;4953836;28;20195;-72
2022/08/23 05:10:35;;;;;;;5.50;5.00;;;14.10;99.90;;;;;;4964749;28;20184;-73
2022/08/23 05:13:01;;;;;;;7.87;5.60;;;14.20;99.90;;;;;;4964411;28;20195;-72
2022/08/23 05:15:26;;;;;;;6.33;4.87;;;14.30;99.90;;;;;;4969918;28;20188;-73
2022/08/23 05:17:52;;;;;;;5.20;4.70;;;14.40;99.90;;;;;;4973187;28;20215;-73
2022/08/23 05:20:18;;;;;;;4.90;4.47;;;14.50;99.90;;;;;;4972107;28;20191;-72
2022/08/23 05:22:43;;;;;;;7.70;4.60;;;14.70;99.90;;;;;;4973183;28;20196;-73
2022/08/23 05:25:09;;;;;;;11.83;5.30;;;15.10;99.90;;;;;;4972263;28;20211;-72
2022/08/23 05:27:35;;;;;;;7.20;4.53;;;15.50;99.90;;;;;;4972444;28;20188;-71
2022/08/23 05:30:01;;;;;;;4.97;4.57;;;16.10;99.90;;;;;;4973332;28;20180;-72
2022/08/23 05:32:27;;;;;;;6.83;4.87;;;16.50;99.90;;;;;;4972850;28;20451;-72
2022/08/23 05:34:52;;;;;;;9.97;4.53;;;17.00;99.90;;;;;;4973053;28;20995;-73
2022/08/23 05:37:18;;;;;;;7.13;4.73;;;17.50;99.90;;;;;;4973256;28;20579;-72
2022/08/23 05:39:43;;;;;;;4.53;4.23;;;18.10;99.90;;;;;;4973201;28;20176;-73
2022/08/23 05:42:12;;;;;;;8.60;4.90;;;18.50;99.90;;;;;;4972662;28;20613;-72
2022/08/23 05:44:38;;;;;;;5.67;4.27;;;18.90;99.90;;;;;;4972718;28;20180;-73
2022/08/23 05:47:05;;;;;;;4.73;4.33;;;19.40;99.90;;;;;;4973247;28;20970;-73
2022/08/23 05:49:31;;;;;;;4.80;4.00;;;19.80;99.90;;;;;;4972866;28;20607;-73
2022/08/23 05:51:57;;;;;;;5.63;3.67;;;20.00;99.90;;;;;;4972492;28;20436;-70
2022/08/23 05:54:22;;;;;;;4.40;3.30;;;20.10;99.90;;;;;;4972853;28;20215;-72
2022/08/23 05:56:48;;;;;;;4.80;3.30;;;20.50;99.90;;;;;;4972837;28;20559;-73
2022/08/23 05:59:15;;;;;;;4.53;3.27;;;20.80;99.90;;;;;;4972277;28;20195;-73
2022/08/23 06:01:42;;;;;;;4.17;3.83;;;21.10;99.90;;;;;;4972509;28;20207;-73
2022/08/23 06:04:11;;;;;;;3.67;3.37;;;21.50;99.90;;;;;;4972605;28;20802;-73
2022/08/23 06:06:37;;;;;;;8.30;5.60;;;21.80;99.90;;;;;;4972425;28;20427;-72
2022/08/23 06:09:05;;;;;;;8.93;3.83;;;22.10;99.90;;;;;;4972046;28;20942;-73
2022/08/23 06:11:31;;;;;;;9.60;3.97;;;22.30;99.90;;;;;;4971815;28;20474;-73
2022/08/23 06:14:00;;;;;;;8.97;4.27;;;22.40;99.90;;;;;;4972809;28;20867;-73
2022/08/23 06:16:30;;;;;;;5.60;3.73;;;22.60;99.90;;;;;;4972222;28;20423;-73
2022/08/23 06:18:56;;;;;;;6.13;3.90;;;22.70;99.90;;;;;;4973188;28;20486;-71
2022/08/23 06:21:22;;;;;;;7.03;3.80;;;22.90;99.90;;;;;;4972355;28;20440;-74
2022/08/23 06:23:48;;;;;;;6.20;3.90;;;23.20;99.90;;;;;;4972618;28;20420;-73
2022/08/23 06:26:20;;;;;;;5.70;3.90;;;23.40;99.90;;;;;;4971919;28;20918;-73
2022/08/23 06:28:48;;;;;;;7.90;3.27;;;23.50;99.90;;;;;;4972542;28;20552;-73
2022/08/23 06:31:14;;;;;;;3.87;3.57;;;23.80;99.90;;;;;;4971439;28;20478;-73
2022/08/23 06:33:42;;;;;;;13.97;4.67;;;24.00;99.90;;;;;;4971656;28;20419;-73
2022/08/23 06:36:11;;;;;;;5.40;3.43;;;24.30;99.90;;;;;;4972120;28;20180;-73
2022/08/23 06:38:38;;;;;;;8.93;4.20;;;24.30;99.90;;;;;;4971991;28;20467;-73
2022/08/23 06:41:06;;;;;;;11.17;3.90;;;24.50;99.90;;;;;;4971221;28;20431;-72
2022/08/23 06:43:32;;;;;;;7.23;3.10;;;24.50;99.90;;;;;;4972184;28;20559;-73
2022/08/23 06:46:09;;;;;;;5.87;3.70;;;24.50;99.90;;;;;;4972101;28;20435;-74
2022/08/23 06:48:34;;;;;;;6.30;3.90;;;24.60;99.90;;;;;;4972063;28;20545;-73
2022/08/23 06:51:00;;;;;;;11.33;3.53;;;24.60;99.90;;;;;;4971072;28;20853;-73
2022/08/23 06:53:25;;;;;;;4.97;3.23;;;24.70;99.90;;;;;;4972231;28;20184;-73
2022/08/23 06:55:51;;;;;;;8.10;3.40;;;24.80;99.90;;;;;;4972204;28;20195;-72
2022/08/23 06:58:16;;;;;;;7.97;3.97;;;24.90;99.90;;;;;;4971678;28;20254;-72
2022/08/23 07:00:42;;;;;;;8.10;3.60;;;25.00;99.90;;;;;;4971190;28;21067;-73
2022/08/23 07:03:08;;;;;;;3.13;2.93;;;25.20;99.90;;;;;;4971759;28;20182;-74
2022/08/23 07:05:33;;;;;;;7.73;4.10;;;25.20;99.90;;;;;;4971847;28;20179;-73
2022/08/23 07:07:59;;;;;;;3.50;3.20;;;25.40;99.90;;;;;;4971799;28;20500;-73
2022/08/23 07:10:24;;;;;;;12.13;3.60;;;25.70;99.90;;;;;;4971318;28;20184;-73
2022/08/23 07:12:50;;;;;;;3.87;3.53;;;26.00;99.90;;;;;;4971579;28;20207;-73
2022/08/23 07:15:15;;;;;;;8.63;3.30;;;26.20;99.90;;;;;;4970859;28;20172;-70
2022/08/23 07:17:41;;;;;;;8.47;3.13;;;26.20;99.90;;;;;;4971935;28;20566;-74
2022/08/23 07:20:07;;;;;;;8.00;3.37;;;26.40;99.90;;;;;;4971506;28;20548;-73
2022/08/23 07:22:32;;;;;;;11.13;4.00;;;26.70;99.90;;;;;;4971343;28;20188;-72
2022/08/23 07:24:58;;;;;;;5.80;3.40;;;26.70;99.90;;;;;;4971342;28;20414;-73
2022/08/23 07:27:24;;;;;;;7.00;3.60;;;26.50;99.90;;;;;;4971922;28;20180;-73
2022/08/23 07:29:49;;;;;;;4.53;3.17;;;26.60;99.90;;;;;;4971104;28;20184;-75
2022/08/23 07:32:15;;;;;;;15.03;3.73;;;26.80;99.90;;;;;;4970497;28;20231;-72
2022/08/23 07:34:40;;;;;;;9.13;3.60;;;27.00;99.90;;;;;;4973425;28;20184;-73
2022/08/23 07:37:06;;;;;;;4.97;3.37;;;27.30;99.90;;;;;;4975206;28;20549;-73
2022/08/23 07:39:31;;;;;;;4.73;3.23;;;27.30;99.90;;;;;;4975322;28;20226;-73
2022/08/23 07:42:02;;;;;;;4.90;3.70;;;27.70;99.90;;;;;;4974340;28;20267;-72
2022/08/23 07:44:28;;;;;;;6.97;4.30;;;28.00;99.90;;;;;;4975263;28;20176;-74
2022/08/23 07:46:55;;;;;;;4.13;3.60;;;28.30;99.90;;;;;;4975062;28;20411;-73
2022/08/23 07:49:21;;;;;;;3.53;2.70;;;28.30;99.90;;;;;;4974773;28;20427;-75
2022/08/23 07:51:49;;;;;;;6.93;4.00;;;28.30;99.90;;;;;;4974730;28;20438;-75
2022/08/23 07:54:17;;;;;;;6.30;3.60;;;28.20;99.90;;;;;;4974294;28;20466;-72
2022/08/23 07:56:42;;;;;;;6.90;3.50;;;28.30;99.90;;;;;;4975073;28;20435;-73
2022/08/23 07:59:08;;;;;;;5.43;3.73;;;28.50;99.90;;;;;;4974850;28;20474;-74
2022/08/23 08:01:34;;;;;;;6.63;3.53;;;28.80;99.90;;;;;;4974388;28;20298;-73
2022/08/23 08:04:02;;;;;;;8.83;3.57;;;29.00;99.90;;;;;;4974835;28;20437;-75
2022/08/23 08:06:37;;;;;;;6.93;3.80;;;28.80;99.90;;;;;;4974238;28;20242;-73
2022/08/23 08:09:04;;;;;;;5.03;3.80;;;29.00;99.90;;;;;;4990505;28;20418;-73
2022/08/23 08:11:31;;;;;;;4.70;3.10;;;29.40;99.90;;;;;;4993567;28;20492;-73
2022/08/23 08:13:57;;;;;;;12.60;3.77;;;29.70;99.90;;;;;;4994151;28;20438;-73
2022/08/23 08:16:32;;;;;;;9.97;3.47;;;29.70;99.90;;;;;;4993496;28;20425;-73
2022/08/23 08:19:00;;;;;;;6.50;3.60;;;29.80;99.90;;;;;;4994251;28;20465;-74
2022/08/23 08:21:26;;;;;;;14.70;4.03;;;29.80;99.90;;;;;;4995062;28;20529;-73
2022/08/23 08:23:53;;;;;;;6.20;3.43;;;30.00;99.90;;;;;;4994893;28;20453;-73
2022/08/23 08:26:19;;;;;;;10.03;3.70;;;30.00;99.90;;;;;;4993718;28;20939;-73
2022/08/23 08:28:45;;;;;;;3.90;3.60;;;29.90;99.90;;;;;;4994007;28;20414;-73
2022/08/23 08:31:11;;;;;;;3.33;2.87;;;29.80;99.90;;;;;;4992402;28;20445;-71
2022/08/23 08:33:36;;;;;;;11.37;3.70;;;29.60;99.90;;;;;;4993909;28;20187;-70
2022/08/23 08:36:03;;;;;;;6.80;3.50;;;29.80;99.90;;;;;;4993431;28;20417;-71
2022/08/23 08:38:29;;;;;;;4.33;3.13;;;30.30;99.90;;;;;;4993746;28;20199;-71
2022/08/23 08:41:14;;;;;;;5.23;3.20;;;30.30;99.90;;;;;;4993066;28;20454;-69
2022/08/23 08:43:49;;;;;;;6.37;3.47;;;30.70;99.50;;;;;;4992990;28;20168;-71
2022/08/23 08:46:45;;;;;;;10.20;3.17;;;30.90;99.80;;;;;;4993209;28;21008;-71
2022/08/23 08:49:35;;;;;;;4.80;2.93;;;31.10;99.00;;;;;;4993505;28;20759;-71
2022/08/23 08:52:17;;;;;;;6.43;3.20;;;31.40;96.90;;;;;;4992633;28;20457;-71
2022/08/23 08:54:45;;;;;;;7.20;2.87;;;32.00;97.00;;;;;;4993921;28;20414;-71
2022/08/23 08:57:17;;;;;;;11.23;2.77;;;32.30;95.50;;;;;;4992789;28;20458;-71
2022/08/23 09:00:13;;;;;;;7.23;2.90;;;32.60;94.20;;;;;;4992019;28;20430;-71
2022/08/23 09:02:39;;;;;;;4.17;2.83;;;33.00;94.40;;;;;;4992792;28;20477;-71
2022/08/23 09:05:11;;;;;;;5.43;2.73;;;33.20;93.40;;;;;;4993299;28;20497;-71
2022/08/23 09:08:01;;;;;;;5.03;2.43;;;32.90;93.10;;;;;;4993301;28;20415;-71
2022/08/23 09:10:33;;;;;;;4.03;3.10;;;32.50;91.60;;;;;;4992387;28;20418;-73
2022/08/23 09:13:36;;;;;;;3.20;2.37;;;32.50;92.40;;;;;;4991839;28;20446;-72
2022/08/23 09:16:21;;;;;;;4.80;2.60;;;32.90;90.50;;;;;;4962643;28;20509;-72
2022/08/23 09:18:47;;;;;;;3.10;2.60;;;32.90;90.20;;;;;;4993404;28;20458;-74
2022/08/23 09:21:14;;;;;;;6.70;3.50;;;33.30;91.00;;;;;;4992360;28;20521;-73
2022/08/23 09:23:43;;;;;;;4.33;2.57;;;33.10;89.30;;;;;;4992612;28;20514;-72
2022/08/23 09:26:23;;;;;;;2.80;2.37;;;33.30;88.00;;;;;;4992857;28;20473;-73
2022/08/23 09:28:58;;;;;;;4.20;1.87;;;33.10;87.50;;;;;;4993140;28;20432;-73
2022/08/23 09:31:54;;;;;;;2.47;1.70;;;33.30;87.00;;;;;;4993218;28;20471;-73
2022/08/23 09:34:21;;;;;;;3.43;1.83;;;33.30;87.80;;;;;;4993130;28;20432;-74
2022/08/23 09:36:47;;;;;;;7.43;2.10;;;33.30;82.30;;;;;;4993019;28;20842;-72
2022/08/23 09:39:24;;;;;;;2.27;2.07;;;33.40;80.40;;;;;;4993666;28;20446;-73
2022/08/23 09:41:50;;;;;;;4.57;2.40;;;33.40;80.70;;;;;;4992934;28;20621;-72
2022/08/23 09:44:36;;;;;;;4.33;1.90;;;33.80;80.00;;;;;;4992516;28;20418;-70
2022/08/23 09:47:15;;;;;;;2.57;1.50;;;34.00;80.40;;;;;;4970835;28;20420;-72
2022/08/23 09:49:43;;;;;;;4.13;2.10;;;34.10;77.50;;;;;;4972971;28;20426;-72
2022/08/23 09:52:33;;;;;;;2.40;1.67;;;34.50;75.50;;;;;;4970724;28;20447;-72
2022/08/23 09:55:03;;;;;;;3.23;1.70;;;34.10;72.60;;;;;;4972248;28;20861;-74
2022/08/23 09:57:30;;;;;;;2.23;2.03;;;33.90;72.00;;;;;;4971412;28;20910;-72
2022/08/23 10:00:17;;;;;;;2.20;1.50;;;33.70;72.00;;;;;;4972686;28;20420;-71
2022/08/23 10:02:43;;;;;;;1.97;1.50;;;33.20;72.50;;;;;;4972382;28;20442;-73
2022/08/23 10:05:28;;;;;;;4.20;1.80;;;32.20;73.00;;;;;;4972353;28;20415;-72
2022/08/23 10:07:59;;;;;;;4.90;1.67;;;32.80;74.00;;;;;;4969348;28;20447;-73
2022/08/23 10:10:36;;;;;;;4.50;2.20;;;32.90;72.40;;;;;;4960488;28;20420;-73
2022/08/23 10:13:04;;;;;;;3.43;2.07;;;33.20;72.20;;;;;;4970231;28;20426;-72
2022/08/23 10:15:59;;;;;;;3.67;2.20;;;33.60;72.20;;;;;;4971068;28;20805;-73
2022/08/23 10:18:42;;;;;;;1.70;1.60;;;33.90;72.40;;;;;;4972073;28;20479;-73
2022/08/23 10:21:42;;;;;;;1.60;1.47;;;34.60;70.90;;;;;;4971475;28;20823;-73
2022/08/23 10:24:10;;;;;;;4.03;1.80;;;35.10;69.20;;;;;;4971452;28;20427;-73
2022/08/23 10:26:49;;;;;;;2.43;1.90;;;34.70;67.60;;;;;;4972075;28;20415;-72
2022/08/23 10:29:41;;;;;;;2.90;1.80;;;34.50;68.60;;;;;;4971981;28;21237;-73
2022/08/23 10:32:24;;;;;;;3.17;2.10;;;34.80;67.50;;;;;;4971188;28;20459;-72
2022/08/23 10:35:25;;;;;;;1.93;1.63;;;33.90;67.40;;;;;;4971816;28;20423;-73
2022/08/23 10:38:25;;;;;;;2.10;1.90;;;33.90;67.30;;;;;;4949293;28;20463;-72
2022/08/23 10:41:19;;;;;;;2.80;1.90;;;34.10;66.00;;;;;;4940403;28;20440;-73
2022/08/23 10:44:04;;;;;;;2.60;1.40;;;34.70;66.00;;;;;;4972276;28;20420;-73
2022/08/23 10:46:38;;;;;;;1.83;1.50;;;34.90;65.30;;;;;;4971645;28;20450;-73
2022/08/23 10:49:06;;;;;;;2.80;1.83;;;34.80;65.80;;;;;;4971751;28;20428;-73
2022/08/23 10:51:36;;;;;;;3.67;1.40;;;35.40;65.30;;;;;;4971280;28;20446;-74
2022/08/23 10:54:11;;;;;;;5.57;2.20;;;35.60;63.30;;;;;;4971729;28;20451;-73
2022/08/23 10:56:38;;;;;;;1.43;1.33;;;35.50;63.10;;;;;;4971342;28;20469;-72
2022/08/23 10:59:15;;;;;;;4.60;1.83;;;35.60;62.30;;;;;;4971291;28;20956;-73
2022/08/23 11:01:44;;;;;;;3.33;1.57;;;35.00;61.50;;;;;;4970740;28;20442;-73
2022/08/23 11:04:26;;;;;;;1.77;1.50;;;35.30;62.90;;;;;;4971478;28;20462;-73
2022/08/23 11:06:56;;;;;;;2.63;1.43;;;35.50;60.70;;;;;;4971612;28;20521;-73
2022/08/23 11:09:21;;;;;;;2.67;1.67;;;35.40;59.10;;;;;;4971027;28;20423;-74
2022/08/23 11:12:04;;;;;;;1.40;1.23;;;34.80;59.10;;;;;;4970955;28;20855;-73
2022/08/23 11:14:32;;;;;;;4.73;1.53;;;34.50;59.60;;;;;;4969653;28;20191;-73
2022/08/23 11:17:01;;;;;;;1.77;1.67;;;33.70;60.20;;;;;;4971137;28;20449;-73
2022/08/23 11:19:49;;;;;;;1.83;1.43;;;33.80;60.60;;;;;;4971319;28;20428;-73
2022/08/23 11:22:24;;;;;;;1.47;1.40;;;33.70;60.10;;;;;;4971714;28;20876;-73
2022/08/23 11:24:58;;;;;;;1.60;1.50;;;33.90;58.90;;;;;;4971390;28;20411;-74
2022/08/23 11:27:36;;;;;;;1.47;1.30;;;33.30;59.30;;;;;;4970904;28;20460;-73
2022/08/23 11:30:48;;;;;;;3.07;1.60;;;33.20;59.10;;;;;;4971357;28;20896;-72
2022/08/23 11:33:22;;;;;;;5.33;1.87;;;33.40;60.60;;;;;;4911384;29;20452;-73
2022/08/23 11:36:20;;;;;;;1.87;1.70;;;33.40;59.10;;;;;;4911653;29;20460;-74
2022/08/23 11:38:45;;;;;;;1.77;1.60;;;33.20;61.00;;;;;;4958515;28;20873;-73
2022/08/23 11:41:22;;;;;;;3.33;1.73;;;32.90;60.90;;;;;;4969605;28;20443;-73
2022/08/23 11:44:12;;;;;;;2.20;1.97;;;32.90;61.30;;;;;;4971345;28;20186;-75
2022/08/23 11:46:49;;;;;;;3.07;1.90;;;32.80;62.60;;;;;;4970945;28;20415;-73
2022/08/23 11:49:27;;;;;;;2.63;1.50;;;32.50;62.60;;;;;;4970742;28;20912;-70
2022/08/23 11:52:33;;;;;;;5.37;1.87;;;32.50;63.60;;;;;;4970536;28;20853;-75
2022/08/23 11:55:22;;;;;;;3.50;2.30;;;32.00;64.20;;;;;;4970722;28;20399;-73
2022/08/23 11:57:55;;;;;;;2.30;2.10;;;31.60;64.90;;;;;;4971467;28;20975;-73
2022/08/23 12:00:49;;;;;;;3.27;1.90;;;31.60;64.70;;;;;;4970848;28;20431;-73
2022/08/23 12:03:35;;;;;;;3.33;2.53;;;31.70;65.00;;;;;;4962760;28;20579;-70
2022/08/23 12:06:35;;;;;;;1.80;1.70;;;31.70;64.80;;;;;;4959905;28;20423;-73
2022/08/23 12:09:05;;;;;;;1.90;1.80;;;31.80;65.30;;;;;;4948866;28;20485;-73
2022/08/23 12:12:08;;;;;;;2.67;2.10;;;32.00;65.60;;;;;;4970181;28;20455;-73
2022/08/23 12:14:56;;;;;;;8.50;1.60;;;32.20;65.60;;;;;;4940437;28;20427;-73
2022/08/23 12:17:24;;;;;;;2.60;1.80;;;32.10;64.70;;;;;;4970903;28;20451;-70
2022/08/23 12:19:57;;;;;;;2.73;1.83;;;32.20;64.80;;;;;;4970469;28;20477;-75
2022/08/23 12:22:32;;;;;;;2.53;1.90;;;32.10;64.90;;;;;;4973566;28;21034;-73
2022/08/23 12:25:05;;;;;;;3.70;2.17;;;32.00;65.00;;;;;;4974953;28;20787;-72
2022/08/23 12:27:58;;;;;;;2.00;1.80;;;31.80;64.80;;;;;;4974393;28;20795;-72
2022/08/23 12:30:32;;;;;;;3.33;2.40;;;31.70;65.90;;;;;;4973151;28;20456;-69
2022/08/23 12:33:30;;;;;;;4.00;2.43;;;31.50;65.60;;;;;;4974281;28;20506;-72
2022/08/23 12:36:16;;;;;;;2.20;1.67;;;31.50;65.20;;;;;;4965932;28;20828;-70
2022/08/23 12:39:02;;;;;;;4.67;2.13;;;31.50;64.80;;;;;;4974075;28;20756;-72
2022/08/23 12:41:50;;;;;;;4.07;1.90;;;31.50;64.50;;;;;;4974687;28;20443;-73
2022/08/23 12:44:19;;;;;;;1.93;1.73;;;31.00;64.80;;;;;;4972849;28;20499;-72
2022/08/23 12:46:47;;;;;;;3.33;2.10;;;30.70;65.40;;;;;;4972742;28;20423;-72
2022/08/23 12:49:52;;;;;;;7.50;2.17;;;30.40;65.80;;;;;;4973673;28;20420;-72
2022/08/23 12:52:27;;;;;;;2.27;1.97;;;30.40;66.10;;;;;;4964323;28;20455;-72
2022/08/23 12:54:56;;;;;;;4.10;1.70;;;30.40;65.80;;;;;;4974278;28;20452;-72
2022/08/23 12:57:37;;;;;;;1.90;1.80;;;30.00;66.30;;;;;;4973257;28;20975;-72
2022/08/23 13:00:16;;;;;;;1.97;1.70;;;29.80;67.00;;;;;;4973867;28;20844;-72
2022/08/23 13:02:47;;;;;;;7.57;1.63;;;29.70;67.10;;;;;;4972807;28;20543;-74
2022/08/23 13:05:25;;;;;;;2.30;2.10;;;29.70;68.10;;;;;;4973336;28;20557;-73
2022/08/23 13:07:51;;;;;;;5.23;2.30;;;30.00;68.40;;;;;;4973758;28;20975;-72
2022/08/23 13:10:17;;;;;;;3.30;2.10;;;29.80;66.50;;;;;;4973062;28;20502;-72
2022/08/23 13:12:43;;;;;;;2.17;1.97;;;29.80;67.40;;;;;;4973618;28;20196;-72
2022/08/23 13:15:09;;;;;;;4.67;2.37;;;29.90;67.60;;;;;;4972873;28;20518;-73
2022/08/23 13:17:40;;;;;;;4.40;1.70;;;29.90;67.20;;;;;;4973653;28;20206;-72
2022/08/23 13:20:06;;;;;;;4.20;1.97;;;30.00;67.10;;;;;;4973280;28;20890;-72
2022/08/23 13:22:33;;;;;;;2.03;1.93;;;30.00;66.00;;;;;;4972353;28;20464;-72
2022/08/23 13:25:08;;;;;;;2.70;1.80;;;30.00;67.70;;;;;;4973430;28;20669;-72
2022/08/23 13:27:49;;;;;;;5.03;1.87;;;30.20;67.10;;;;;;4971919;28;20435;-72
2022/08/23 13:30:18;;;;;;;2.93;1.97;;;30.20;68.30;;;;;;4972934;28;20419;-72
2022/08/23 13:32:49;;;;;;;1.47;1.37;;;30.00;67.60;;;;;;4971542;28;20481;-72
2022/08/23 13:35:39;;;;;;;4.53;1.97;;;29.70;68.30;;;;;;4972559;28;20427;-72
2022/08/23 13:38:16;;;;;;;3.67;1.93;;;29.60;68.00;;;;;;4971711;28;20495;-72
2022/08/23 13:41:00;;;;;;;2.80;1.33;;;29.60;68.60;;;;;;4972373;28;20548;-73
2022/08/23 13:43:31;;;;;;;2.27;1.97;;;29.80;69.20;;;;;;4972691;28;20418;-72
2022/08/23 13:46:13;;;;;;;2.90;2.17;;;29.90;68.10;;;;;;4972854;28;20408;-72
2022/08/23 13:48:53;;;;;;;3.60;3.30;;;29.90;68.70;;;;;;4972591;28;20815;-73
2022/08/23 13:51:26;;;;;;;1.90;1.67;;;30.10;68.50;;;;;;4971843;28;20462;-73
2022/08/23 13:53:54;;;;;;;4.30;2.10;;;30.30;67.90;;;;;;4973006;28;20482;-72
2022/08/23 13:56:20;;;;;;;3.83;1.57;;;30.10;68.80;;;;;;4970196;28;20428;-72
2022/08/23 13:59:14;;;;;;;2.83;2.00;;;30.00;67.20;;;;;;4972925;28;20482;-72
2022/08/23 14:01:40;;;;;;;3.53;1.80;;;29.80;67.20;;;;;;4972333;28;20431;-72
2022/08/23 14:04:05;;;;;;;2.40;2.20;;;29.80;66.90;;;;;;4972724;28;20411;-72
2022/08/23 14:06:31;;;;;;;3.03;2.07;;;29.70;66.80;;;;;;4972348;28;20172;-72
2022/08/23 14:08:56;;;;;;;3.00;1.83;;;29.60;67.40;;;;;;4972120;28;20184;-71
2022/08/23 14:11:22;;;;;;;2.40;1.37;;;29.50;67.50;;;;;;4970454;28;20211;-74
2022/08/23 14:13:48;;;;;;;2.20;1.70;;;29.50;67.50;;;;;;4972640;28;20176;-72
2022/08/23 14:16:25;;;;;;;4.23;1.87;;;29.80;69.60;;;;;;4972019;28;20593;-72
2022/08/23 14:18:50;;;;;;;3.17;2.10;;;29.90;69.60;;;;;;4971776;28;20451;-72
2022/08/23 14:21:16;;;;;;;2.03;1.87;;;30.00;69.00;;;;;;4973239;28;20447;-71
2022/08/23 14:23:41;;;;;;;1.97;1.53;;;30.00;69.10;;;;;;4973860;28;20671;-72
2022/08/23 14:26:10;;;;;;;4.63;1.70;;;30.00;69.30;;;;;;4972096;28;20183;-74
2022/08/23 14:28:36;;;;;;;3.70;1.43;;;30.00;69.20;;;;;;4972693;28;20184;-71
2022/08/23 14:31:01;;;;;;;2.03;1.93;;;29.90;68.10;;;;;;4971461;28;20548;-73
2022/08/23 14:33:27;;;;;;;2.60;1.70;;;29.80;68.20;;;;;;4970908;28;20233;-72
2022/08/23 14:35:52;;;;;;;1.73;1.63;;;29.80;68.20;;;;;;4971845;28;20192;-70
2022/08/23 14:38:18;;;;;;;1.93;1.80;;;29.80;69.30;;;;;;4971389;28;20200;-72
2022/08/23 14:40:51;;;;;;;3.10;1.97;;;29.80;68.90;;;;;;4970779;28;20180;-72
2022/08/23 14:43:17;;;;;;;3.30;1.80;;;29.80;69.00;;;;;;4970905;28;20180;-72
2022/08/23 14:45:43;;;;;;;3.63;2.17;;;29.80;69.40;;;;;;4971581;28;20415;-72